sensor_id;sensor_type;location;lat;lon;timestamp;temperature;humidity
5210;DHT22;2624;48.048;11.706;2023-03-30T00:03:42;8.80;99.90
5210;DHT22;2624;48.048;11.706;2023-03-30T00:08:45;8.80;99.90
5210;DHT22;2624;48.048;11.706;2023-03-30T00:13:49;8.80;99.90
5210;DHT22;2624;48.048;11.706;2023-03-30T00:19:01;8.90;99.90
5210;DHT22;2624;48.048;11.706;2023-03-30T00:24:04;8.90;99.90
5210;DHT22;2624;48.048;11.706;2023-03-30T00:29:06;8.90;99.90
5210;DHT22;2624;48.048;11.706;2023-03-30T00:34:08;8.90;99.90
5210;DHT22;2624;48.048;11.706;2023-03-30T00:39:12;8.90;99.90
5210;DHT22;2624;48.048;11.706;2023-03-30T00:49:49;8.90;99.90
5210;DHT22;2624;48.048;11.706;2023-03-30T00:54:54;8.90;99.90
5210;DHT22;2624;48.048;11.706;2023-03-30T00:59:57;9.00;99.90
5210;DHT22;2624;48.048;11.706;2023-03-30T01:04:59;8.90;99.90
5210;DHT22;2624;48.048;11.706;2023-03-30T01:10:03;9.00;99.90
5210;DHT22;2624;48.048;11.706;2023-03-30T01:15:06;8.90;99.90
5210;DHT22;2624;48.048;11.706;2023-03-30T01:26:20;8.90;99.90
5210;DHT22;2624;48.048;11.706;2023-03-30T01:31:41;8.90;99.90
5210;DHT22;2624;48.048;11.706;2023-03-30T01:37:01;8.90;99.90
5210;DHT22;2624;48.048;11.706;2023-03-30T01:42:17;8.90;99.90
5210;DHT22;2624;48.048;11.706;2023-03-30T01:47:23;9.00;99.90
5210;DHT22;2624;48.048;11.706;2023-03-30T01:52:31;9.00;99.90
5210;DHT22;2624;48.048;11.706;2023-03-30T01:57:43;9.00;99.90
5210;DHT22;2624;48.048;11.706;2023-03-30T02:02:49;9.00;99.90
5210;DHT22;2624;48.048;11.706;2023-03-30T02:07:56;8.90;99.90
5210;DHT22;2624;48.048;11.706;2023-03-30T02:13:02;8.90;99.90
5210;DHT22;2624;48.048;11.706;2023-03-30T02:18:05;8.90;99.90
5210;DHT22;2624;48.048;11.706;2023-03-30T02:23:07;8.70;99.90
5210;DHT22;2624;48.048;11.706;2023-03-30T02:28:10;8.90;99.90
5210;DHT22;2624;48.048;11.706;2023-03-30T02:33:17;9.00;99.90
5210;DHT22;2624;48.048;11.706;2023-03-30T02:38:35;8.90;99.90
5210;DHT22;2624;48.048;11.706;2023-03-30T02:43:49;9.10;99.90
5210;DHT22;2624;48.048;11.706;2023-03-30T02:49:03;9.30;99.90
5210;DHT22;2624;48.048;11.706;2023-03-30T02:54:17;9.30;99.90
5210;DHT22;2624;48.048;11.706;2023-03-30T02:59:27;9.20;99.90
5210;DHT22;2624;48.048;11.706;2023-03-30T03:04:31;9.10;99.90
5210;DHT22;2624;48.048;11.706;2023-03-30T03:09:34;9.10;99.90
5210;DHT22;2624;48.048;11.706;2023-03-30T03:14:38;9.20;99.90
5210;DHT22;2624;48.048;11.706;2023-03-30T03:19:40;9.20;99.90
5210;DHT22;2624;48.048;11.706;2023-03-30T03:24:41;9.10;99.90
5210;DHT22;2624;48.048;11.706;2023-03-30T03:29:45;9.20;99.90
5210;DHT22;2624;48.048;11.706;2023-03-30T03:34:47;9.40;99.90
5210;DHT22;2624;48.048;11.706;2023-03-30T03:39:49;9.30;99.90
5210;DHT22;2624;48.048;11.706;2023-03-30T03:44:52;9.40;99.90
5210;DHT22;2624;48.048;11.706;2023-03-30T03:49:54;9.30;99.90
5210;DHT22;2624;48.048;11.706;2023-03-30T03:54:55;9.40;99.90
5210;DHT22;2624;48.048;11.706;2023-03-30T03:59:59;9.50;99.90
5210;DHT22;2624;48.048;11.706;2023-03-30T04:05:01;9.50;99.90
5210;DHT22;2624;48.048;11.706;2023-03-30T04:10:03;9.40;99.90
5210;DHT22;2624;48.048;11.706;2023-03-30T04:15:08;9.00;99.90
5210;DHT22;2624;48.048;11.706;2023-03-30T04:20:10;8.70;99.90
5210;DHT22;2624;48.048;11.706;2023-03-30T04:25:12;8.70;99.90
5210;DHT22;2624;48.048;11.706;2023-03-30T04:30:17;9.00;99.90
5210;DHT22;2624;48.048;11.706;2023-03-30T04:35:19;9.00;99.90
5210;DHT22;2624;48.048;11.706;2023-03-30T04:40:21;9.00;99.90
5210;DHT22;2624;48.048;11.706;2023-03-30T04:45:24;8.80;99.90
5210;DHT22;2624;48.048;11.706;2023-03-30T04:50:26;8.90;99.90
5210;DHT22;2624;48.048;11.706;2023-03-30T04:55:28;8.80;99.90
5210;DHT22;2624;48.048;11.706;2023-03-30T05:00:31;8.90;99.90
5210;DHT22;2624;48.048;11.706;2023-03-30T05:05:34;8.90;99.90
5210;DHT22;2624;48.048;11.706;2023-03-30T05:10:36;8.90;99.90
5210;DHT22;2624;48.048;11.706;2023-03-30T05:15:39;8.90;99.90
5210;DHT22;2624;48.048;11.706;2023-03-30T05:20:41;9.10;99.90
5210;DHT22;2624;48.048;11.706;2023-03-30T05:25:43;9.10;99.90
5210;DHT22;2624;48.048;11.706;2023-03-30T05:30:52;9.00;99.90
5210;DHT22;2624;48.048;11.706;2023-03-30T05:35:53;9.10;99.90
5210;DHT22;2624;48.048;11.706;2023-03-30T05:40:56;9.10;99.90
5210;DHT22;2624;48.048;11.706;2023-03-30T05:45:59;9.00;99.90
5210;DHT22;2624;48.048;11.706;2023-03-30T05:51:01;9.10;99.90
5210;DHT22;2624;48.048;11.706;2023-03-30T05:56:04;9.10;99.90
5210;DHT22;2624;48.048;11.706;2023-03-30T06:01:08;9.10;99.90
5210;DHT22;2624;48.048;11.706;2023-03-30T06:06:11;9.10;99.90
5210;DHT22;2624;48.048;11.706;2023-03-30T06:11:13;9.10;99.90
5210;DHT22;2624;48.048;11.706;2023-03-30T06:16:16;8.90;99.90
5210;DHT22;2624;48.048;11.706;2023-03-30T06:21:18;9.00;99.90
5210;DHT22;2624;48.048;11.706;2023-03-30T06:26:20;9.10;99.90
5210;DHT22;2624;48.048;11.706;2023-03-30T06:31:24;9.10;99.90
5210;DHT22;2624;48.048;11.706;2023-03-30T06:36:26;9.10;99.90
5210;DHT22;2624;48.048;11.706;2023-03-30T06:41:28;9.10;99.90
5210;DHT22;2624;48.048;11.706;2023-03-30T06:46:31;9.20;99.90
5210;DHT22;2624;48.048;11.706;2023-03-30T06:51:33;9.10;99.90
5210;DHT22;2624;48.048;11.706;2023-03-30T06:56:35;9.30;99.90
5210;DHT22;2624;48.048;11.706;2023-03-30T07:01:38;9.30;99.90
5210;DHT22;2624;48.048;11.706;2023-03-30T07:06:40;9.30;99.90
5210;DHT22;2624;48.048;11.706;2023-03-30T07:11:42;9.30;99.90
5210;DHT22;2624;48.048;11.706;2023-03-30T07:16:45;9.40;99.90
5210;DHT22;2624;48.048;11.706;2023-03-30T07:21:48;9.40;99.90
5210;DHT22;2624;48.048;11.706;2023-03-30T07:26:50;9.50;99.90
5210;DHT22;2624;48.048;11.706;2023-03-30T07:31:53;9.50;99.90
5210;DHT22;2624;48.048;11.706;2023-03-30T07:36:56;9.60;99.90
5210;DHT22;2624;48.048;11.706;2023-03-30T07:41:58;9.70;99.90
5210;DHT22;2624;48.048;11.706;2023-03-30T07:47:01;9.80;99.90
5210;DHT22;2624;48.048;11.706;2023-03-30T07:52:06;9.80;99.90
5210;DHT22;2624;48.048;11.706;2023-03-30T07:57:08;9.80;99.90
5210;DHT22;2624;48.048;11.706;2023-03-30T08:02:11;9.90;99.90
5210;DHT22;2624;48.048;11.706;2023-03-30T08:07:14;9.90;99.90
5210;DHT22;2624;48.048;11.706;2023-03-30T08:12:17;10.00;99.90
5210;DHT22;2624;48.048;11.706;2023-03-30T08:17:20;10.10;99.90
5210;DHT22;2624;48.048;11.706;2023-03-30T08:22:22;10.00;99.90
5210;DHT22;2624;48.048;11.706;2023-03-30T08:27:24;10.00;99.90
5210;DHT22;2624;48.048;11.706;2023-03-30T08:32:27;10.10;99.90
5210;DHT22;2624;48.048;11.706;2023-03-30T08:37:29;10.20;99.90
5210;DHT22;2624;48.048;11.706;2023-03-30T08:42:58;10.20;99.90
5210;DHT22;2624;48.048;11.706;2023-03-30T08:48:04;10.30;99.90
5210;DHT22;2624;48.048;11.706;2023-03-30T08:53:07;10.30;99.90
5210;DHT22;2624;48.048;11.706;2023-03-30T08:58:13;10.30;99.90
5210;DHT22;2624;48.048;11.706;2023-03-30T09:03:26;10.40;99.90
5210;DHT22;2624;48.048;11.706;2023-03-30T09:08:32;10.40;99.90
5210;DHT22;2624;48.048;11.706;2023-03-30T09:13:34;10.50;99.90
5210;DHT22;2624;48.048;11.706;2023-03-30T09:18:40;10.60;99.90
5210;DHT22;2624;48.048;11.706;2023-03-30T09:23:43;10.80;99.90
5210;DHT22;2624;48.048;11.706;2023-03-30T09:28:50;10.90;99.90
5210;DHT22;2624;48.048;11.706;2023-03-30T09:33:58;11.00;99.90
5210;DHT22;2624;48.048;11.706;2023-03-30T09:39:08;11.10;99.90
5210;DHT22;2624;48.048;11.706;2023-03-30T09:44:18;11.20;99.90
5210;DHT22;2624;48.048;11.706;2023-03-30T09:49:26;11.50;99.90
5210;DHT22;2624;48.048;11.706;2023-03-30T09:54:34;11.10;99.90
5210;DHT22;2624;48.048;11.706;2023-03-30T09:59:37;11.30;99.90
5210;DHT22;2624;48.048;11.706;2023-03-30T10:04:55;11.10;99.90
5210;DHT22;2624;48.048;11.706;2023-03-30T10:09:59;11.20;99.90
5210;DHT22;2624;48.048;11.706;2023-03-30T10:15:01;11.20;99.90
5210;DHT22;2624;48.048;11.706;2023-03-30T10:20:23;11.10;99.90
5210;DHT22;2624;48.048;11.706;2023-03-30T10:25:27;11.20;99.90
5210;DHT22;2624;48.048;11.706;2023-03-30T10:30:32;11.50;99.90
5210;DHT22;2624;48.048;11.706;2023-03-30T10:35:36;11.60;99.90
5210;DHT22;2624;48.048;11.706;2023-03-30T10:40:40;11.40;99.90
5210;DHT22;2624;48.048;11.706;2023-03-30T10:45:46;11.40;99.90
5210;DHT22;2624;48.048;11.706;2023-03-30T10:50:55;11.70;99.90
5210;DHT22;2624;48.048;11.706;2023-03-30T10:56:05;11.60;99.90
5210;DHT22;2624;48.048;11.706;2023-03-30T11:01:16;11.60;99.90
5210;DHT22;2624;48.048;11.706;2023-03-30T11:06:25;11.40;99.90
5210;DHT22;2624;48.048;11.706;2023-03-30T11:11:32;11.40;99.90
5210;DHT22;2624;48.048;11.706;2023-03-30T11:16:42;11.40;99.90
5210;DHT22;2624;48.048;11.706;2023-03-30T11:21:56;11.40;99.90
5210;DHT22;2624;48.048;11.706;2023-03-30T11:27:02;11.40;99.90
5210;DHT22;2624;48.048;11.706;2023-03-30T11:32:16;11.30;99.90
5210;DHT22;2624;48.048;11.706;2023-03-30T11:37:27;11.40;99.90
5210;DHT22;2624;48.048;11.706;2023-03-30T11:42:31;11.40;99.90
5210;DHT22;2624;48.048;11.706;2023-03-30T11:47:42;11.30;99.90
5210;DHT22;2624;48.048;11.706;2023-03-30T11:52:53;11.30;99.90
5210;DHT22;2624;48.048;11.706;2023-03-30T11:58:07;11.30;99.90
5210;DHT22;2624;48.048;11.706;2023-03-30T12:03:35;11.30;99.90
5210;DHT22;2624;48.048;11.706;2023-03-30T12:08:51;11.20;99.90
5210;DHT22;2624;48.048;11.706;2023-03-30T12:13:56;11.30;99.90
5210;DHT22;2624;48.048;11.706;2023-03-30T12:19:06;11.10;99.90
5210;DHT22;2624;48.048;11.706;2023-03-30T12:24:17;11.10;99.90
5210;DHT22;2624;48.048;11.706;2023-03-30T12:29:20;11.10;99.90
5210;DHT22;2624;48.048;11.706;2023-03-30T12:34:25;11.00;99.90
5210;DHT22;2624;48.048;11.706;2023-03-30T12:39:30;11.10;99.90
5210;DHT22;2624;48.048;11.706;2023-03-30T12:44:41;11.10;99.90
5210;DHT22;2624;48.048;11.706;2023-03-30T12:49:57;11.00;99.90
5210;DHT22;2624;48.048;11.706;2023-03-30T12:55:15;11.10;99.90
5210;DHT22;2624;48.048;11.706;2023-03-30T13:00:40;11.10;99.90
5210;DHT22;2624;48.048;11.706;2023-03-30T13:05:49;11.00;99.90
5210;DHT22;2624;48.048;11.706;2023-03-30T13:11:09;11.00;99.90
5210;DHT22;2624;48.048;11.706;2023-03-30T13:16:11;11.00;99.90
5210;DHT22;2624;48.048;11.706;2023-03-30T13:21:19;10.90;99.90
5210;DHT22;2624;48.048;11.706;2023-03-30T13:26:24;10.80;99.90
5210;DHT22;2624;48.048;11.706;2023-03-30T13:31:41;10.50;99.90
5210;DHT22;2624;48.048;11.706;2023-03-30T13:36:50;10.50;99.90
5210;DHT22;2624;48.048;11.706;2023-03-30T13:42:08;10.40;99.90
5210;DHT22;2624;48.048;11.706;2023-03-30T13:47:26;10.40;99.90
5210;DHT22;2624;48.048;11.706;2023-03-30T13:52:32;10.40;99.90
5210;DHT22;2624;48.048;11.706;2023-03-30T13:57:37;10.30;99.90
5210;DHT22;2624;48.048;11.706;2023-03-30T14:02:40;10.30;99.90
5210;DHT22;2624;48.048;11.706;2023-03-30T14:07:43;10.20;99.90
5210;DHT22;2624;48.048;11.706;2023-03-30T14:12:51;10.20;99.90
5210;DHT22;2624;48.048;11.706;2023-03-30T14:17:56;10.20;99.90
5210;DHT22;2624;48.048;11.706;2023-03-30T14:22:59;10.20;99.90
5210;DHT22;2624;48.048;11.706;2023-03-30T14:28:09;10.20;99.90
5210;DHT22;2624;48.048;11.706;2023-03-30T14:33:12;10.10;99.90
5210;DHT22;2624;48.048;11.706;2023-03-30T14:38:16;10.20;99.90
5210;DHT22;2624;48.048;11.706;2023-03-30T14:43:23;10.10;99.90
5210;DHT22;2624;48.048;11.706;2023-03-30T14:48:28;10.10;99.90
5210;DHT22;2624;48.048;11.706;2023-03-30T14:53:30;10.10;99.90
5210;DHT22;2624;48.048;11.706;2023-03-30T14:58:33;10.10;99.90
5210;DHT22;2624;48.048;11.706;2023-03-30T15:03:36;10.10;99.90
5210;DHT22;2624;48.048;11.706;2023-03-30T15:08:39;10.00;99.90
5210;DHT22;2624;48.048;11.706;2023-03-30T15:13:44;10.10;99.90
5210;DHT22;2624;48.048;11.706;2023-03-30T15:18:48;10.10;99.90
5210;DHT22;2624;48.048;11.706;2023-03-30T15:23:51;10.00;99.90
5210;DHT22;2624;48.048;11.706;2023-03-30T15:28:56;10.00;99.90
5210;DHT22;2624;48.048;11.706;2023-03-30T15:33:59;10.00;99.90
5210;DHT22;2624;48.048;11.706;2023-03-30T15:39:02;10.00;99.90
5210;DHT22;2624;48.048;11.706;2023-03-30T15:44:11;9.90;99.90
5210;DHT22;2624;48.048;11.706;2023-03-30T15:49:15;9.90;99.90
5210;DHT22;2624;48.048;11.706;2023-03-30T15:54:21;9.80;99.90
5210;DHT22;2624;48.048;11.706;2023-03-30T15:59:30;9.70;99.90
5210;DHT22;2624;48.048;11.706;2023-03-30T16:04:33;9.70;99.90
5210;DHT22;2624;48.048;11.706;2023-03-30T16:09:34;9.70;99.90
5210;DHT22;2624;48.048;11.706;2023-03-30T16:14:38;9.70;99.90
5210;DHT22;2624;48.048;11.706;2023-03-30T16:19:40;9.70;99.90
5210;DHT22;2624;48.048;11.706;2023-03-30T16:24:42;9.70;99.90
5210;DHT22;2624;48.048;11.706;2023-03-30T16:29:45;9.70;99.90
5210;DHT22;2624;48.048;11.706;2023-03-30T16:34:47;9.70;99.90
5210;DHT22;2624;48.048;11.706;2023-03-30T16:39:48;9.70;99.90
5210;DHT22;2624;48.048;11.706;2023-03-30T16:44:52;9.80;99.90
5210;DHT22;2624;48.048;11.706;2023-03-30T16:49:53;9.90;99.90
5210;DHT22;2624;48.048;11.706;2023-03-30T16:54:55;9.90;99.90
5210;DHT22;2624;48.048;11.706;2023-03-30T16:59:58;9.90;99.90
5210;DHT22;2624;48.048;11.706;2023-03-30T17:05:00;9.90;99.90
5210;DHT22;2624;48.048;11.706;2023-03-30T17:10:15;9.90;99.90
5210;DHT22;2624;48.048;11.706;2023-03-30T17:15:22;9.90;99.90
5210;DHT22;2624;48.048;11.706;2023-03-30T17:20:27;9.90;99.90
5210;DHT22;2624;48.048;11.706;2023-03-30T17:25:31;9.90;99.90
5210;DHT22;2624;48.048;11.706;2023-03-30T17:30:37;9.90;99.90
5210;DHT22;2624;48.048;11.706;2023-03-30T17:35:39;9.80;99.90
5210;DHT22;2624;48.048;11.706;2023-03-30T17:40:43;9.80;99.90
5210;DHT22;2624;48.048;11.706;2023-03-30T17:45:47;9.80;99.90
5210;DHT22;2624;48.048;11.706;2023-03-30T17:50:50;9.80;99.90
5210;DHT22;2624;48.048;11.706;2023-03-30T17:55:52;9.80;99.90
5210;DHT22;2624;48.048;11.706;2023-03-30T18:00:55;9.80;99.90
5210;DHT22;2624;48.048;11.706;2023-03-30T18:05:58;9.80;99.90
5210;DHT22;2624;48.048;11.706;2023-03-30T18:11:00;9.80;99.90
5210;DHT22;2624;48.048;11.706;2023-03-30T18:16:04;9.70;99.90
5210;DHT22;2624;48.048;11.706;2023-03-30T18:21:08;9.70;99.90
5210;DHT22;2624;48.048;11.706;2023-03-30T18:26:11;9.70;99.90
5210;DHT22;2624;48.048;11.706;2023-03-30T18:31:14;9.70;99.90
5210;DHT22;2624;48.048;11.706;2023-03-30T18:36:17;9.60;99.90
5210;DHT22;2624;48.048;11.706;2023-03-30T18:41:20;9.60;99.90
5210;DHT22;2624;48.048;11.706;2023-03-30T18:46:23;9.60;99.90
5210;DHT22;2624;48.048;11.706;2023-03-30T18:51:25;9.60;99.90
5210;DHT22;2624;48.048;11.706;2023-03-30T18:56:26;9.60;99.90
5210;DHT22;2624;48.048;11.706;2023-03-30T19:01:29;9.50;99.90
5210;DHT22;2624;48.048;11.706;2023-03-30T19:06:32;9.50;99.90
5210;DHT22;2624;48.048;11.706;2023-03-30T19:11:34;9.50;99.90
5210;DHT22;2624;48.048;11.706;2023-03-30T19:16:37;9.50;99.90
5210;DHT22;2624;48.048;11.706;2023-03-30T19:21:39;9.50;99.90
5210;DHT22;2624;48.048;11.706;2023-03-30T19:26:42;9.50;99.90
5210;DHT22;2624;48.048;11.706;2023-03-30T19:31:45;9.40;99.90
5210;DHT22;2624;48.048;11.706;2023-03-30T19:36:47;9.40;99.90
5210;DHT22;2624;48.048;11.706;2023-03-30T19:41:49;9.30;99.90
5210;DHT22;2624;48.048;11.706;2023-03-30T19:46:52;9.30;99.90
5210;DHT22;2624;48.048;11.706;2023-03-30T19:51:54;9.30;99.90
5210;DHT22;2624;48.048;11.706;2023-03-30T19:56:55;9.10;99.90
5210;DHT22;2624;48.048;11.706;2023-03-30T20:01:59;9.10;99.90
5210;DHT22;2624;48.048;11.706;2023-03-30T20:07:01;9.10;99.90
5210;DHT22;2624;48.048;11.706;2023-03-30T20:12:03;9.30;99.90
5210;DHT22;2624;48.048;11.706;2023-03-30T20:17:06;9.30;99.90
5210;DHT22;2624;48.048;11.706;2023-03-30T20:22:10;9.30;99.90
5210;DHT22;2624;48.048;11.706;2023-03-30T20:27:12;9.30;99.90
5210;DHT22;2624;48.048;11.706;2023-03-30T20:32:15;9.30;99.90
5210;DHT22;2624;48.048;11.706;2023-03-30T20:37:17;9.30;99.90
5210;DHT22;2624;48.048;11.706;2023-03-30T20:42:18;9.30;99.90
5210;DHT22;2624;48.048;11.706;2023-03-30T20:47:27;9.30;99.90
5210;DHT22;2624;48.048;11.706;2023-03-30T20:52:29;9.20;99.90
5210;DHT22;2624;48.048;11.706;2023-03-30T20:57:31;9.20;99.90
5210;DHT22;2624;48.048;11.706;2023-03-30T21:02:34;9.20;99.90
5210;DHT22;2624;48.048;11.706;2023-03-30T21:07:36;9.10;99.90
5210;DHT22;2624;48.048;11.706;2023-03-30T21:12:41;9.10;99.90
5210;DHT22;2624;48.048;11.706;2023-03-30T21:17:44;9.00;99.90
5210;DHT22;2624;48.048;11.706;2023-03-30T21:22:46;8.90;99.90
5210;DHT22;2624;48.048;11.706;2023-03-30T21:27:48;8.90;99.90
5210;DHT22;2624;48.048;11.706;2023-03-30T21:32:51;8.80;99.90
5210;DHT22;2624;48.048;11.706;2023-03-30T21:37:52;8.70;99.90
5210;DHT22;2624;48.048;11.706;2023-03-30T21:42:54;8.60;99.90
5210;DHT22;2624;48.048;11.706;2023-03-30T21:47:57;8.60;99.90
5210;DHT22;2624;48.048;11.706;2023-03-30T21:52:59;8.50;99.90
5210;DHT22;2624;48.048;11.706;2023-03-30T21:58:01;8.50;99.90
5210;DHT22;2624;48.048;11.706;2023-03-30T22:03:04;8.70;99.90
5210;DHT22;2624;48.048;11.706;2023-03-30T22:08:06;8.70;99.90
5210;DHT22;2624;48.048;11.706;2023-03-30T22:13:09;8.60;99.90
5210;DHT22;2624;48.048;11.706;2023-03-30T22:18:12;8.60;99.90
5210;DHT22;2624;48.048;11.706;2023-03-30T22:23:14;8.60;99.90
5210;DHT22;2624;48.048;11.706;2023-03-30T22:28:16;8.60;99.90
5210;DHT22;2624;48.048;11.706;2023-03-30T22:33:19;8.60;99.90
5210;DHT22;2624;48.048;11.706;2023-03-30T22:38:21;8.60;99.90
5210;DHT22;2624;48.048;11.706;2023-03-30T22:43:23;8.60;99.90
5210;DHT22;2624;48.048;11.706;2023-03-30T22:48:26;8.60;99.90
5210;DHT22;2624;48.048;11.706;2023-03-30T22:53:28;8.70;99.90
5210;DHT22;2624;48.048;11.706;2023-03-30T22:58:29;8.60;99.90
5210;DHT22;2624;48.048;11.706;2023-03-30T23:03:33;8.50;99.90
5210;DHT22;2624;48.048;11.706;2023-03-30T23:08:35;8.50;99.90
5210;DHT22;2624;48.048;11.706;2023-03-30T23:13:36;8.50;99.90
5210;DHT22;2624;48.048;11.706;2023-03-30T23:18:42;8.50;99.90
5210;DHT22;2624;48.048;11.706;2023-03-30T23:23:44;8.40;99.90
5210;DHT22;2624;48.048;11.706;2023-03-30T23:28:46;8.30;99.90
5210;DHT22;2624;48.048;11.706;2023-03-30T23:33:50;8.30;99.90
5210;DHT22;2624;48.048;11.706;2023-03-30T23:38:52;8.20;99.90
5210;DHT22;2624;48.048;11.706;2023-03-30T23:43:54;8.20;99.90
5210;DHT22;2624;48.048;11.706;2023-03-30T23:48:57;8.10;99.90
5210;DHT22;2624;48.048;11.706;2023-03-30T23:53:59;8.10;99.90
5210;DHT22;2624;48.048;11.706;2023-03-30T23:59:05;8.10;99.90
